sensor_id;sensor_type;location;lat;lon;timestamp;pressure;altitude;pressure_sealevel;temperature;humidity
52249;BME280;38541;48.130;8.378;2023-02-28T00:01:28;92954.94;;;-3.39;62.51
52249;BME280;38541;48.130;8.378;2023-02-28T00:03:55;92946.72;;;-3.35;61.83
52249;BME280;38541;48.130;8.378;2023-02-28T00:06:22;92949.09;;;-3.33;62.73
52249;BME280;38541;48.130;8.378;2023-02-28T00:08:50;92952.63;;;-3.34;61.99
52249;BME280;38541;48.130;8.378;2023-02-28T00:11:16;92951.38;;;-3.38;62.25
52249;BME280;38541;48.130;8.378;2023-02-28T00:13:45;92947.69;;;-3.36;62.54
52249;BME280;38541;48.130;8.378;2023-02-28T00:16:18;92937.22;;;-3.34;62.34
52249;BME280;38541;48.130;8.378;2023-02-28T00:18:45;92945.25;;;-3.29;62.40
52249;BME280;38541;48.130;8.378;2023-02-28T00:21:14;92941.22;;;-3.32;62.50
52249;BME280;38541;48.130;8.378;2023-02-28T00:23:41;92944.94;;;-3.34;62.93
52249;BME280;38541;48.130;8.378;2023-02-28T00:26:07;92942.81;;;-3.31;62.90
52249;BME280;38541;48.130;8.378;2023-02-28T00:28:36;92951.16;;;-3.28;63.16
52249;BME280;38541;48.130;8.378;2023-02-28T00:31:02;92942.03;;;-3.31;63.24
52249;BME280;38541;48.130;8.378;2023-02-28T00:33:29;92941.59;;;-3.35;63.47
52249;BME280;38541;48.130;8.378;2023-02-28T00:36:21;92941.47;;;-3.41;63.59
52249;BME280;38541;48.130;8.378;2023-02-28T00:38:48;92935.28;;;-3.32;64.10
52249;BME280;38541;48.130;8.378;2023-02-28T00:41:15;92937.69;;;-3.31;63.30
52249;BME280;38541;48.130;8.378;2023-02-28T00:43:41;92938.94;;;-3.26;63.78
52249;BME280;38541;48.130;8.378;2023-02-28T00:46:10;92938.94;;;-3.26;63.92
52249;BME280;38541;48.130;8.378;2023-02-28T00:48:36;92937.84;;;-3.32;63.72
52249;BME280;38541;48.130;8.378;2023-02-28T00:51:03;92940.72;;;-3.27;63.49
52249;BME280;38541;48.130;8.378;2023-02-28T00:53:30;92937.47;;;-3.21;63.88
52249;BME280;38541;48.130;8.378;2023-02-28T00:55:58;92937.91;;;-3.17;63.87
52249;BME280;38541;48.130;8.378;2023-02-28T00:58:25;92942.47;;;-3.27;62.78
52249;BME280;38541;48.130;8.378;2023-02-28T01:00:52;92944.88;;;-3.26;64.04
52249;BME280;38541;48.130;8.378;2023-02-28T01:03:20;92942.31;;;-3.26;63.73
52249;BME280;38541;48.130;8.378;2023-02-28T01:05:48;92943.72;;;-3.23;63.68
52249;BME280;38541;48.130;8.378;2023-02-28T01:08:15;92933.38;;;-3.30;63.77
52249;BME280;38541;48.130;8.378;2023-02-28T01:10:42;92935.13;;;-3.31;64.01
52249;BME280;38541;48.130;8.378;2023-02-28T01:13:09;92938.59;;;-3.23;64.23
52249;BME280;38541;48.130;8.378;2023-02-28T01:15:36;92933.28;;;-3.22;64.06
52249;BME280;38541;48.130;8.378;2023-02-28T01:18:04;92936.22;;;-3.25;63.88
52249;BME280;38541;48.130;8.378;2023-02-28T01:20:30;92934.34;;;-3.31;64.03
52249;BME280;38541;48.130;8.378;2023-02-28T01:22:57;92929.59;;;-3.42;64.79
52249;BME280;38541;48.130;8.378;2023-02-28T01:25:23;92938.50;;;-3.53;64.37
52249;BME280;38541;48.130;8.378;2023-02-28T01:27:50;92930.94;;;-3.55;64.87
52249;BME280;38541;48.130;8.378;2023-02-28T01:30:18;92931.91;;;-3.56;64.84
52249;BME280;38541;48.130;8.378;2023-02-28T01:32:46;92932.31;;;-3.44;64.75
52249;BME280;38541;48.130;8.378;2023-02-28T01:35:12;92924.56;;;-3.36;65.27
52249;BME280;38541;48.130;8.378;2023-02-28T01:37:39;92935.63;;;-3.35;65.20
52249;BME280;38541;48.130;8.378;2023-02-28T01:40:06;92927.56;;;-3.32;64.69
52249;BME280;38541;48.130;8.378;2023-02-28T01:42:32;92932.72;;;-3.32;64.88
52249;BME280;38541;48.130;8.378;2023-02-28T01:47:47;92937.84;;;-3.32;64.81
52249;BME280;38541;48.130;8.378;2023-02-28T01:50:23;92933.19;;;-3.28;64.74
52249;BME280;38541;48.130;8.378;2023-02-28T01:52:51;92934.97;;;-3.29;64.54
52249;BME280;38541;48.130;8.378;2023-02-28T01:55:20;92936.06;;;-3.47;64.72
52249;BME280;38541;48.130;8.378;2023-02-28T01:57:53;92927.31;;;-3.37;65.23
52249;BME280;38541;48.130;8.378;2023-02-28T02:00:24;92929.13;;;-3.46;64.84
52249;BME280;38541;48.130;8.378;2023-02-28T02:02:54;92923.75;;;-3.36;65.70
52249;BME280;38541;48.130;8.378;2023-02-28T02:05:24;92931.94;;;-3.33;65.75
52249;BME280;38541;48.130;8.378;2023-02-28T02:07:55;92930.69;;;-3.37;66.07
52249;BME280;38541;48.130;8.378;2023-02-28T02:24:39;92917.28;;;-3.32;67.18
52249;BME280;38541;48.130;8.378;2023-02-28T02:33:38;92918.06;;;-3.47;68.13
52249;BME280;38541;48.130;8.378;2023-02-28T02:39:06;92912.13;;;-3.47;67.60
52249;BME280;38541;48.130;8.378;2023-02-28T02:41:41;92917.50;;;-3.57;67.64
52249;BME280;38541;48.130;8.378;2023-02-28T02:44:42;92917.13;;;-3.54;68.28
52249;BME280;38541;48.130;8.378;2023-02-28T02:47:14;92922.84;;;-3.44;68.58
52249;BME280;38541;48.130;8.378;2023-02-28T02:49:46;92913.59;;;-3.53;68.26
52249;BME280;38541;48.130;8.378;2023-02-28T02:52:18;92922.28;;;-3.54;69.07
52249;BME280;38541;48.130;8.378;2023-02-28T02:54:48;92921.16;;;-3.51;68.70
52249;BME280;38541;48.130;8.378;2023-02-28T02:57:23;92911.03;;;-3.53;69.21
52249;BME280;38541;48.130;8.378;2023-02-28T02:59:53;92918.13;;;-3.55;68.73
52249;BME280;38541;48.130;8.378;2023-02-28T03:02:21;92911.53;;;-3.81;68.42
52249;BME280;38541;48.130;8.378;2023-02-28T03:04:53;92909.59;;;-3.79;69.85
52249;BME280;38541;48.130;8.378;2023-02-28T03:07:22;92914.16;;;-3.66;69.36
52249;BME280;38541;48.130;8.378;2023-02-28T03:09:53;92915.09;;;-3.59;69.41
52249;BME280;38541;48.130;8.378;2023-02-28T03:12:23;92909.50;;;-3.62;69.22
52249;BME280;38541;48.130;8.378;2023-02-28T03:20:27;92913.38;;;-3.66;69.94
52249;BME280;38541;48.130;8.378;2023-02-28T03:23:07;92907.94;;;-3.72;69.56
52249;BME280;38541;48.130;8.378;2023-02-28T03:31:48;92901.53;;;-3.67;70.52
52249;BME280;38541;48.130;8.378;2023-02-28T03:34:22;92898.50;;;-3.71;69.90
52249;BME280;38541;48.130;8.378;2023-02-28T03:36:53;92897.16;;;-3.67;70.22
52249;BME280;38541;48.130;8.378;2023-02-28T03:39:28;92895.81;;;-3.78;70.04
52249;BME280;38541;48.130;8.378;2023-02-28T03:42:05;92901.91;;;-3.79;70.43
52249;BME280;38541;48.130;8.378;2023-02-28T03:44:45;92897.41;;;-3.77;70.68
52249;BME280;38541;48.130;8.378;2023-02-28T03:47:17;92902.88;;;-3.80;69.88
52249;BME280;38541;48.130;8.378;2023-02-28T03:49:54;92906.53;;;-3.74;70.17
52249;BME280;38541;48.130;8.378;2023-02-28T03:52:27;92914.53;;;-3.69;70.28
52249;BME280;38541;48.130;8.378;2023-02-28T03:55:00;92914.66;;;-3.94;70.10
52249;BME280;38541;48.130;8.378;2023-02-28T03:57:50;92913.19;;;-3.88;70.56
52249;BME280;38541;48.130;8.378;2023-02-28T04:00:27;92908.16;;;-3.81;70.84
52249;BME280;38541;48.130;8.378;2023-02-28T04:02:55;92908.69;;;-3.86;69.98
52249;BME280;38541;48.130;8.378;2023-02-28T04:05:22;92908.50;;;-3.84;71.13
52249;BME280;38541;48.130;8.378;2023-02-28T04:07:49;92907.31;;;-3.74;71.20
52249;BME280;38541;48.130;8.378;2023-02-28T04:10:16;92912.47;;;-3.74;71.06
52249;BME280;38541;48.130;8.378;2023-02-28T04:12:42;92905.72;;;-3.75;70.72
52249;BME280;38541;48.130;8.378;2023-02-28T04:15:09;92904.31;;;-3.77;71.22
52249;BME280;38541;48.130;8.378;2023-02-28T04:17:37;92911.19;;;-3.78;71.43
52249;BME280;38541;48.130;8.378;2023-02-28T04:20:04;92910.06;;;-3.75;71.06
52249;BME280;38541;48.130;8.378;2023-02-28T04:22:35;92914.13;;;-3.81;70.63
52249;BME280;38541;48.130;8.378;2023-02-28T04:25:03;92919.28;;;-3.89;70.30
52249;BME280;38541;48.130;8.378;2023-02-28T04:27:29;92914.28;;;-3.82;70.92
52249;BME280;38541;48.130;8.378;2023-02-28T04:29:58;92912.16;;;-3.79;71.40
52249;BME280;38541;48.130;8.378;2023-02-28T04:32:24;92908.69;;;-3.86;71.65
52249;BME280;38541;48.130;8.378;2023-02-28T04:34:50;92908.06;;;-3.88;71.46
52249;BME280;38541;48.130;8.378;2023-02-28T04:37:17;92918.63;;;-3.83;71.74
52249;BME280;38541;48.130;8.378;2023-02-28T04:39:43;92914.13;;;-3.81;72.15
52249;BME280;38541;48.130;8.378;2023-02-28T04:42:11;92915.09;;;-3.82;71.21
52249;BME280;38541;48.130;8.378;2023-02-28T04:44:37;92908.00;;;-3.80;70.90
52249;BME280;38541;48.130;8.378;2023-02-28T04:47:04;92910.66;;;-3.96;70.88
52249;BME280;38541;48.130;8.378;2023-02-28T04:49:31;92919.94;;;-3.87;71.72
52249;BME280;38541;48.130;8.378;2023-02-28T04:51:57;92918.97;;;-3.86;70.63
52249;BME280;38541;48.130;8.378;2023-02-28T04:54:23;92917.44;;;-4.04;71.03
52249;BME280;38541;48.130;8.378;2023-02-28T04:56:50;92917.13;;;-4.09;70.90
52249;BME280;38541;48.130;8.378;2023-02-28T04:59:17;92924.03;;;-4.09;71.23
52249;BME280;38541;48.130;8.378;2023-02-28T05:01:47;92910.19;;;-4.00;71.76
52249;BME280;38541;48.130;8.378;2023-02-28T05:04:14;92918.06;;;-4.02;72.15
52249;BME280;38541;48.130;8.378;2023-02-28T05:06:41;92921.00;;;-4.05;72.23
52249;BME280;38541;48.130;8.378;2023-02-28T05:09:08;92913.28;;;-4.05;72.15
52249;BME280;38541;48.130;8.378;2023-02-28T05:11:38;92923.72;;;-4.06;71.52
52249;BME280;38541;48.130;8.378;2023-02-28T05:14:09;92922.75;;;-4.05;71.82
52249;BME280;38541;48.130;8.378;2023-02-28T05:16:36;92914.41;;;-4.07;72.03
52249;BME280;38541;48.130;8.378;2023-02-28T05:19:03;92920.38;;;-4.15;72.02
52249;BME280;38541;48.130;8.378;2023-02-28T05:21:31;92920.72;;;-4.18;71.53
52249;BME280;38541;48.130;8.378;2023-02-28T05:24:01;92918.63;;;-4.14;71.64
52249;BME280;38541;48.130;8.378;2023-02-28T05:26:28;92922.94;;;-4.15;71.95
52249;BME280;38541;48.130;8.378;2023-02-28T05:28:54;92920.66;;;-4.10;72.73
52249;BME280;38541;48.130;8.378;2023-02-28T05:31:21;92920.03;;;-4.04;72.26
52249;BME280;38541;48.130;8.378;2023-02-28T05:33:48;92928.97;;;-3.99;71.93
52249;BME280;38541;48.130;8.378;2023-02-28T05:36:14;92935.69;;;-3.98;72.12
52249;BME280;38541;48.130;8.378;2023-02-28T05:38:41;92935.84;;;-4.00;72.27
52249;BME280;38541;48.130;8.378;2023-02-28T05:41:09;92940.03;;;-3.99;71.90
52249;BME280;38541;48.130;8.378;2023-02-28T05:43:36;92941.81;;;-3.99;72.85
52249;BME280;38541;48.130;8.378;2023-02-28T05:46:08;92937.94;;;-3.95;72.62
52249;BME280;38541;48.130;8.378;2023-02-28T05:48:36;92937.63;;;-4.01;72.08
52249;BME280;38541;48.130;8.378;2023-02-28T05:51:03;92939.09;;;-3.98;72.06
52249;BME280;38541;48.130;8.378;2023-02-28T05:53:31;92941.75;;;-3.91;71.75
52249;BME280;38541;48.130;8.378;2023-02-28T05:55:58;92939.22;;;-3.99;71.72
52249;BME280;38541;48.130;8.378;2023-02-28T05:58:25;92937.28;;;-3.97;71.68
52249;BME280;38541;48.130;8.378;2023-02-28T06:00:55;92936.69;;;-4.08;71.55
52249;BME280;38541;48.130;8.378;2023-02-28T06:03:22;92936.03;;;-4.02;72.21
52249;BME280;38541;48.130;8.378;2023-02-28T06:05:48;92936.53;;;-4.06;71.89
52249;BME280;38541;48.130;8.378;2023-02-28T06:08:15;92935.69;;;-3.98;71.74
52249;BME280;38541;48.130;8.378;2023-02-28T06:10:41;92934.09;;;-3.99;71.78
52249;BME280;38541;48.130;8.378;2023-02-28T06:13:08;92944.72;;;-4.03;71.81
52249;BME280;38541;48.130;8.378;2023-02-28T06:15:34;92952.09;;;-4.08;71.65
52249;BME280;38541;48.130;8.378;2023-02-28T06:18:01;92954.97;;;-4.03;71.94
52249;BME280;38541;48.130;8.378;2023-02-28T06:20:28;92949.38;;;-4.06;72.37
52249;BME280;38541;48.130;8.378;2023-02-28T06:22:56;92959.16;;;-4.10;72.16
52249;BME280;38541;48.130;8.378;2023-02-28T06:25:25;92962.34;;;-4.08;72.43
52249;BME280;38541;48.130;8.378;2023-02-28T06:27:53;92964.25;;;-4.02;72.47
52249;BME280;38541;48.130;8.378;2023-02-28T06:30:20;92972.75;;;-4.01;72.45
52249;BME280;38541;48.130;8.378;2023-02-28T06:32:51;92971.28;;;-3.95;72.29
52249;BME280;38541;48.130;8.378;2023-02-28T06:35:18;92977.69;;;-3.91;72.17
52249;BME280;38541;48.130;8.378;2023-02-28T06:37:44;92975.75;;;-3.89;72.80
52249;BME280;38541;48.130;8.378;2023-02-28T06:40:11;92975.09;;;-3.91;72.30
52249;BME280;38541;48.130;8.378;2023-02-28T06:42:39;92976.72;;;-3.90;71.97
52249;BME280;38541;48.130;8.378;2023-02-28T06:45:06;92977.66;;;-3.83;72.05
52249;BME280;38541;48.130;8.378;2023-02-28T06:47:37;92979.25;;;-3.82;72.20
52249;BME280;38541;48.130;8.378;2023-02-28T06:50:04;92983.22;;;-3.71;72.46
52249;BME280;38541;48.130;8.378;2023-02-28T06:52:31;92984.97;;;-3.72;71.91
52249;BME280;38541;48.130;8.378;2023-02-28T06:54:58;92979.97;;;-3.65;72.01
52249;BME280;38541;48.130;8.378;2023-02-28T06:57:29;92989.09;;;-3.62;71.77
52249;BME280;38541;48.130;8.378;2023-02-28T06:59:58;92991.66;;;-3.62;72.63
52249;BME280;38541;48.130;8.378;2023-02-28T07:02:25;92996.81;;;-3.62;71.92
52249;BME280;38541;48.130;8.378;2023-02-28T07:04:52;92992.56;;;-3.55;72.29
52249;BME280;38541;48.130;8.378;2023-02-28T07:07:19;92995.28;;;-3.48;71.58
52249;BME280;38541;48.130;8.378;2023-02-28T07:09:45;92992.84;;;-3.41;71.83
52249;BME280;38541;48.130;8.378;2023-02-28T07:12:12;92986.25;;;-3.44;71.57
52249;BME280;38541;48.130;8.378;2023-02-28T07:14:38;92991.22;;;-3.42;71.68
52249;BME280;38541;48.130;8.378;2023-02-28T07:17:07;92996.03;;;-3.39;71.54
52249;BME280;38541;48.130;8.378;2023-02-28T07:19:34;92993.59;;;-3.33;72.09
52249;BME280;38541;48.130;8.378;2023-02-28T07:22:00;92994.78;;;-3.44;71.25
52249;BME280;38541;48.130;8.378;2023-02-28T07:24:28;92996.31;;;-3.34;71.86
52249;BME280;38541;48.130;8.378;2023-02-28T07:26:56;92992.47;;;-3.38;71.47
52249;BME280;38541;48.130;8.378;2023-02-28T07:29:22;92992.56;;;-3.47;72.35
52249;BME280;38541;48.130;8.378;2023-02-28T07:31:49;92989.00;;;-3.46;72.42
52249;BME280;38541;48.130;8.378;2023-02-28T07:34:20;92988.50;;;-3.41;72.31
52249;BME280;38541;48.130;8.378;2023-02-28T07:36:47;92988.59;;;-3.34;72.54
52249;BME280;38541;48.130;8.378;2023-02-28T07:39:13;92992.13;;;-3.35;72.25
52249;BME280;38541;48.130;8.378;2023-02-28T07:41:39;92995.69;;;-3.36;72.02
52249;BME280;38541;48.130;8.378;2023-02-28T07:44:10;92994.56;;;-3.34;72.01
52249;BME280;38541;48.130;8.378;2023-02-28T07:46:37;92997.41;;;-3.28;71.97
52249;BME280;38541;48.130;8.378;2023-02-28T07:49:04;92995.31;;;-3.25;72.40
52249;BME280;38541;48.130;8.378;2023-02-28T07:51:32;92994.25;;;-3.16;72.66
52249;BME280;38541;48.130;8.378;2023-02-28T07:53:58;93001.31;;;-3.09;72.10
52249;BME280;38541;48.130;8.378;2023-02-28T07:56:25;92999.59;;;-3.17;71.62
52249;BME280;38541;48.130;8.378;2023-02-28T07:58:51;93002.31;;;-3.19;71.73
52249;BME280;38541;48.130;8.378;2023-02-28T08:01:18;93005.84;;;-3.20;71.78
52249;BME280;38541;48.130;8.378;2023-02-28T08:03:45;93003.25;;;-3.11;71.69
52249;BME280;38541;48.130;8.378;2023-02-28T08:06:21;92998.88;;;-3.11;72.32
52249;BME280;38541;48.130;8.378;2023-02-28T08:08:48;93003.53;;;-3.06;71.69
52249;BME280;38541;48.130;8.378;2023-02-28T08:11:16;93008.47;;;-3.05;71.93
52249;BME280;38541;48.130;8.378;2023-02-28T08:13:44;93013.06;;;-2.92;71.68
52249;BME280;38541;48.130;8.378;2023-02-28T08:16:12;93022.06;;;-2.96;71.34
52249;BME280;38541;48.130;8.378;2023-02-28T08:18:43;93013.72;;;-2.98;71.41
52249;BME280;38541;48.130;8.378;2023-02-28T08:21:10;93020.47;;;-2.97;71.52
52249;BME280;38541;48.130;8.378;2023-02-28T08:23:36;93019.81;;;-2.91;71.19
52249;BME280;38541;48.130;8.378;2023-02-28T08:26:03;93017.28;;;-2.99;71.21
52249;BME280;38541;48.130;8.378;2023-02-28T08:28:30;93018.19;;;-2.92;71.92
52249;BME280;38541;48.130;8.378;2023-02-28T08:30:57;93017.03;;;-2.89;71.62
52249;BME280;38541;48.130;8.378;2023-02-28T08:33:24;93019.09;;;-2.84;71.22
52249;BME280;38541;48.130;8.378;2023-02-28T08:35:55;93021.31;;;-2.81;70.89
52249;BME280;38541;48.130;8.378;2023-02-28T08:38:22;93016.91;;;-2.73;71.03
52249;BME280;38541;48.130;8.378;2023-02-28T08:40:49;93021.44;;;-2.75;70.44
52249;BME280;38541;48.130;8.378;2023-02-28T08:43:16;93027.88;;;-2.55;70.36
52249;BME280;38541;48.130;8.378;2023-02-28T08:45:43;93036.66;;;-2.50;70.51
52249;BME280;38541;48.130;8.378;2023-02-28T08:48:09;93027.94;;;-2.49;70.37
52249;BME280;38541;48.130;8.378;2023-02-28T08:50:36;93030.72;;;-2.50;70.40
52249;BME280;38541;48.130;8.378;2023-02-28T08:53:02;93024.41;;;-2.48;70.05
52249;BME280;38541;48.130;8.378;2023-02-28T08:55:29;93025.13;;;-2.39;70.16
52249;BME280;38541;48.130;8.378;2023-02-28T08:57:55;93036.50;;;-2.33;70.41
52249;BME280;38541;48.130;8.378;2023-02-28T09:00:22;93034.38;;;-2.30;69.99
52249;BME280;38541;48.130;8.378;2023-02-28T09:02:48;93035.97;;;-2.28;69.64
52249;BME280;38541;48.130;8.378;2023-02-28T09:05:15;93039.44;;;-2.21;69.97
52249;BME280;38541;48.130;8.378;2023-02-28T09:07:41;93041.03;;;-2.20;69.60
52249;BME280;38541;48.130;8.378;2023-02-28T09:10:09;93043.81;;;-2.22;69.43
52249;BME280;38541;48.130;8.378;2023-02-28T09:12:35;93046.53;;;-2.23;69.46
52249;BME280;38541;48.130;8.378;2023-02-28T09:15:02;93044.31;;;-2.26;69.79
52249;BME280;38541;48.130;8.378;2023-02-28T09:17:29;93044.22;;;-2.18;69.76
52249;BME280;38541;48.130;8.378;2023-02-28T09:19:57;93046.63;;;-2.17;69.99
52249;BME280;38541;48.130;8.378;2023-02-28T09:22:23;93040.25;;;-2.06;69.41
52249;BME280;38541;48.130;8.378;2023-02-28T09:24:50;93043.19;;;-2.09;69.55
52249;BME280;38541;48.130;8.378;2023-02-28T09:27:16;93044.69;;;-1.99;69.59
52249;BME280;38541;48.130;8.378;2023-02-28T09:29:43;93043.91;;;-2.00;68.56
52249;BME280;38541;48.130;8.378;2023-02-28T09:32:09;93046.03;;;-2.04;69.33
52249;BME280;38541;48.130;8.378;2023-02-28T09:34:37;93045.84;;;-1.87;68.77
52249;BME280;38541;48.130;8.378;2023-02-28T09:37:03;93053.84;;;-1.82;68.67
52249;BME280;38541;48.130;8.378;2023-02-28T09:39:30;93041.94;;;-1.83;68.66
52249;BME280;38541;48.130;8.378;2023-02-28T09:41:57;93053.84;;;-1.82;69.30
52249;BME280;38541;48.130;8.378;2023-02-28T09:44:39;93048.97;;;-1.77;69.30
52249;BME280;38541;48.130;8.378;2023-02-28T09:47:18;93056.50;;;-1.60;68.72
52249;BME280;38541;48.130;8.378;2023-02-28T09:49:48;93056.03;;;-1.49;67.91
52249;BME280;38541;48.130;8.378;2023-02-28T09:52:21;93058.97;;;-1.52;67.93
52249;BME280;38541;48.130;8.378;2023-02-28T09:54:50;93059.22;;;-1.47;67.62
52249;BME280;38541;48.130;8.378;2023-02-28T10:05:54;93066.03;;;-1.24;66.87
52249;BME280;38541;48.130;8.378;2023-02-28T10:08:42;93070.47;;;-1.18;66.60
52249;BME280;38541;48.130;8.378;2023-02-28T10:11:15;93072.00;;;-1.23;66.70
52249;BME280;38541;48.130;8.378;2023-02-28T10:13:48;93080.72;;;-1.24;66.70
52249;BME280;38541;48.130;8.378;2023-02-28T10:16:22;93079.91;;;-1.25;67.43
52249;BME280;38541;48.130;8.378;2023-02-28T10:21:41;93068.81;;;-1.25;67.30
52249;BME280;38541;48.130;8.378;2023-02-28T10:24:29;93072.06;;;-1.17;67.19
52249;BME280;38541;48.130;8.378;2023-02-28T10:27:33;93077.00;;;-1.00;66.95
52249;BME280;38541;48.130;8.378;2023-02-28T10:29:55;93068.50;;;-1.16;66.58
52249;BME280;38541;48.130;8.378;2023-02-28T10:32:27;93070.63;;;-1.04;66.92
52249;BME280;38541;48.130;8.378;2023-02-28T10:37:46;93071.50;;;-0.75;66.34
52249;BME280;38541;48.130;8.378;2023-02-28T10:43:16;93080.81;;;-0.96;66.33
52249;BME280;38541;48.130;8.378;2023-02-28T10:45:55;93075.66;;;-0.74;66.05
52249;BME280;38541;48.130;8.378;2023-02-28T10:58:55;93079.78;;;-0.58;64.97
52249;BME280;38541;48.130;8.378;2023-02-28T11:01:46;93090.22;;;-0.45;65.03
52249;BME280;38541;48.130;8.378;2023-02-28T11:07:00;93083.03;;;-0.49;64.55
52249;BME280;38541;48.130;8.378;2023-02-28T11:09:32;93089.38;;;-0.52;65.33
52249;BME280;38541;48.130;8.378;2023-02-28T11:12:02;93087.84;;;-0.46;64.33
52249;BME280;38541;48.130;8.378;2023-02-28T11:14:33;93090.09;;;-0.58;63.93
52249;BME280;38541;48.130;8.378;2023-02-28T11:17:34;93095.81;;;-0.41;64.81
52249;BME280;38541;48.130;8.378;2023-02-28T11:20:07;93093.09;;;-0.33;64.26
52249;BME280;38541;48.130;8.378;2023-02-28T11:22:45;93098.56;;;-0.21;64.22
52249;BME280;38541;48.130;8.378;2023-02-28T11:25:25;93093.53;;;-0.29;64.02
52249;BME280;38541;48.130;8.378;2023-02-28T11:27:57;93093.13;;;-0.04;63.39
52249;BME280;38541;48.130;8.378;2023-02-28T11:30:29;93096.13;;;-0.01;63.31
52249;BME280;38541;48.130;8.378;2023-02-28T11:32:56;93093.03;;;0.11;63.03
52249;BME280;38541;48.130;8.378;2023-02-28T11:35:29;93085.53;;;0.16;63.23
52249;BME280;38541;48.130;8.378;2023-02-28T11:37:58;93076.16;;;0.15;61.37
52249;BME280;38541;48.130;8.378;2023-02-28T11:40:31;93086.63;;;0.07;62.87
52249;BME280;38541;48.130;8.378;2023-02-28T11:43:21;93097.50;;;0.24;62.54
52249;BME280;38541;48.130;8.378;2023-02-28T11:46:05;93094.94;;;0.31;61.15
52249;BME280;38541;48.130;8.378;2023-02-28T11:53:51;93096.63;;;0.10;62.88
52249;BME280;38541;48.130;8.378;2023-02-28T11:56:33;93096.63;;;0.17;61.34
52249;BME280;38541;48.130;8.378;2023-02-28T11:59:29;93087.72;;;0.19;60.81
52249;BME280;38541;48.130;8.378;2023-02-28T12:02:15;93083.84;;;0.37;61.68
52249;BME280;38541;48.130;8.378;2023-02-28T12:07:50;93092.25;;;0.46;60.70
52249;BME280;38541;48.130;8.378;2023-02-28T12:10:28;93094.41;;;0.42;60.83
52249;BME280;38541;48.130;8.378;2023-02-28T12:16:32;93079.66;;;0.36;60.54
52249;BME280;38541;48.130;8.378;2023-02-28T12:19:16;93076.13;;;0.44;61.29
52249;BME280;38541;48.130;8.378;2023-02-28T12:24:34;93075.41;;;0.56;61.50
52249;BME280;38541;48.130;8.378;2023-02-28T12:27:08;93078.16;;;0.48;60.63
52249;BME280;38541;48.130;8.378;2023-02-28T12:29:58;93080.91;;;0.47;61.23
52249;BME280;38541;48.130;8.378;2023-02-28T12:32:32;93072.97;;;0.48;60.82
52249;BME280;38541;48.130;8.378;2023-02-28T12:37:43;93070.69;;;0.67;59.46
52249;BME280;38541;48.130;8.378;2023-02-28T12:40:15;93061.97;;;0.81;59.62
52249;BME280;38541;48.130;8.378;2023-02-28T12:42:47;93065.63;;;1.01;59.99
52249;BME280;38541;48.130;8.378;2023-02-28T12:45:21;93060.84;;;1.04;59.63
52249;BME280;38541;48.130;8.378;2023-02-28T12:47:58;93064.00;;;0.93;59.33
52249;BME280;38541;48.130;8.378;2023-02-28T12:50:27;93062.81;;;1.02;58.98
52249;BME280;38541;48.130;8.378;2023-02-28T12:53:05;93065.03;;;1.05;60.05
52249;BME280;38541;48.130;8.378;2023-02-28T12:55:46;93069.03;;;1.14;59.86
52249;BME280;38541;48.130;8.378;2023-02-28T13:04:19;93078.78;;;1.12;59.74
52249;BME280;38541;48.130;8.378;2023-02-28T13:07:32;93078.75;;;0.99;58.94
52249;BME280;38541;48.130;8.378;2023-02-28T13:09:59;93071.97;;;0.98;59.58
52249;BME280;38541;48.130;8.378;2023-02-28T13:12:26;93076.41;;;1.18;58.82
52249;BME280;38541;48.130;8.378;2023-02-28T13:15:24;93087.13;;;1.08;57.95
52249;BME280;38541;48.130;8.378;2023-02-28T13:17:53;93089.72;;;1.08;59.20
52249;BME280;38541;48.130;8.378;2023-02-28T13:20:26;93091.50;;;1.01;59.53
52249;BME280;38541;48.130;8.378;2023-02-28T13:22:55;93094.69;;;1.03;59.60
52249;BME280;38541;48.130;8.378;2023-02-28T13:28:12;93092.88;;;1.03;59.44
52249;BME280;38541;48.130;8.378;2023-02-28T13:38:47;93086.97;;;1.16;58.11
52249;BME280;38541;48.130;8.378;2023-02-28T13:44:12;93093.16;;;1.35;58.74
52249;BME280;38541;48.130;8.378;2023-02-28T14:00:17;93078.50;;;1.90;56.26
52249;BME280;38541;48.130;8.378;2023-02-28T14:03:25;93076.69;;;1.90;57.35
52249;BME280;38541;48.130;8.378;2023-02-28T14:06:18;93081.84;;;1.43;56.25
52249;BME280;38541;48.130;8.378;2023-02-28T14:11:31;93075.88;;;2.17;56.07
52249;BME280;38541;48.130;8.378;2023-02-28T14:13:59;93080.81;;;2.45;55.38
52249;BME280;38541;48.130;8.378;2023-02-28T14:16:39;93090.00;;;2.41;55.25
52249;BME280;38541;48.130;8.378;2023-02-28T14:19:15;93087.13;;;2.63;54.73
52249;BME280;38541;48.130;8.378;2023-02-28T14:21:58;93090.94;;;2.53;54.92
52249;BME280;38541;48.130;8.378;2023-02-28T14:24:48;93090.00;;;2.27;53.83
52249;BME280;38541;48.130;8.378;2023-02-28T14:32:54;93093.34;;;2.62;54.55
52249;BME280;38541;48.130;8.378;2023-02-28T14:35:16;93086.09;;;4.94;51.83
52249;BME280;38541;48.130;8.378;2023-02-28T14:37:46;93079.56;;;6.78;45.04
52249;BME280;38541;48.130;8.378;2023-02-28T14:40:27;93086.56;;;7.42;46.20
52249;BME280;38541;48.130;8.378;2023-02-28T14:43:00;93093.19;;;6.80;44.33
52249;BME280;38541;48.130;8.378;2023-02-28T14:45:29;93094.41;;;4.84;47.82
52249;BME280;38541;48.130;8.378;2023-02-28T14:47:57;93094.84;;;4.18;50.09
52249;BME280;38541;48.130;8.378;2023-02-28T14:50:34;93096.28;;;3.89;49.78
52249;BME280;38541;48.130;8.378;2023-02-28T14:53:02;93101.97;;;3.79;51.43
52249;BME280;38541;48.130;8.378;2023-02-28T14:55:34;93109.47;;;3.62;52.43
52249;BME280;38541;48.130;8.378;2023-02-28T14:58:04;93107.50;;;3.57;52.14
52249;BME280;38541;48.130;8.378;2023-02-28T15:00:35;93106.69;;;2.65;52.25
52249;BME280;38541;48.130;8.378;2023-02-28T15:06:14;93106.88;;;2.77;53.14
52249;BME280;38541;48.130;8.378;2023-02-28T15:08:41;93104.72;;;2.61;54.39
52249;BME280;38541;48.130;8.378;2023-02-28T15:11:16;93103.75;;;4.04;52.60
52249;BME280;38541;48.130;8.378;2023-02-28T15:13:50;93095.88;;;4.80;49.84
52249;BME280;38541;48.130;8.378;2023-02-28T15:16:21;93092.09;;;5.43;48.49
52249;BME280;38541;48.130;8.378;2023-02-28T15:18:49;93094.88;;;5.61;48.90
52249;BME280;38541;48.130;8.378;2023-02-28T15:21:21;93088.84;;;6.98;46.12
52249;BME280;38541;48.130;8.378;2023-02-28T15:23:54;93094.34;;;7.25;45.02
52249;BME280;38541;48.130;8.378;2023-02-28T15:26:47;93095.44;;;6.89;44.92
52249;BME280;38541;48.130;8.378;2023-02-28T15:29:15;93088.88;;;8.19;42.29
52249;BME280;38541;48.130;8.378;2023-02-28T15:32:06;93088.00;;;8.31;41.93